NCAR-RAP Real-Time Weather Data

Output produced by METARs form (14 October 2019  22:42 UTC)
found at http://weather.rap.ucar.edu/surface/
 
KATL 142152Z 33006KT 10SM SCT180 BKN250 24/11 A3008 RMK AO2 SLP179 T02440111 $
KATL 142106Z 33007G17KT 10SM FEW080 BKN250 24/11 A3008 RMK AO2 T02440111 $
KATL 142052Z COR 34006KT 10SM FEW080 BKN250 26/11 A3009 RMK AO2 SLP182 T02560111 56010 $
KATL 141952Z VRB04KT 10SM FEW150 BKN250 26/10 A3009 RMK AO2 SLP183 T02560100 $
KATL 141852Z 31007KT 10SM BKN250 25/09 A3010 RMK AO2 SLP187 T02500089 $
KATL 141752Z VRB03KT 10SM BKN250 23/06 A3012 RMK AO2 SLP192 T02330056 10239 20122 58012 $
KATL 141652Z 34006KT 10SM BKN250 22/07 A3013 RMK AO2 SLP198 T02170072 $
KATL 141552Z 31007KT 10SM FEW060 FEW250 19/09 A3014 RMK AO2 SLP203 T01940094 $
KATL 141452Z 30006KT 10SM BKN060 BKN250 16/10 A3015 RMK AO2 SLP208 T01610100 51016 $
KATL 141352Z 31007KT 10SM BKN060 15/10 A3014 RMK AO2 SLP204 T01500100 $
KATL 141252Z 30007KT 10SM SCT070 SCT250 13/08 A3012 RMK AO2 SLP198 T01330083 $
KATL 141152Z 30005KT 10SM FEW070 12/09 A3010 RMK AO2 SLP192 70015 T01220089 10156 20122 51013 $
KATL 141052Z 28005KT 10SM SCT065 13/09 A3010 RMK AO2 SLP190 T01280089 $
KATL 140952Z 33007KT 10SM FEW005 BKN070 14/12 A3009 RMK AO2 SLP185 T01390117 $
KATL 140852Z 32006KT 10SM FEW004 SCT065 14/13 A3006 RMK AO2 SLP177 T01440128 53004 $
KATL 140827Z 30003KT 9SM SCT003 SCT150 14/13 A3006 RMK AO2 T01440133 $
KATL 140752Z 33005KT 7SM BKN003 15/13 A3005 RMK AO2 SLP174 BKN003 V SCT T01500133 $
KATL 140748Z 34006KT 7SM BKN003 15/13 A3005 RMK AO2 BKN003 V SCT $
KATL 140728Z 33004KT 10SM FEW004 15/13 A3005 RMK AO2 T01500133 $
KATL 140652Z 32006KT 10SM FEW150 16/13 A3006 RMK AO2 SLP176 T01560133 $
KATL 140552Z 00000KT 10SM FEW120 BKN150 BKN180 16/13 A3005 RMK AO2 SLP173 60002 T01560133 10183 20156 58009 $
KATL 140452Z 26006KT 10SM BKN150 BKN200 16/14 A3008 RMK AO2 SLP181 T01560139 401890156 $
KATL 140352Z 27006KT 10SM FEW110 BKN150 BKN200 16/14 A3008 RMK AO2 RAE21 SLP181 P0000 T01610139 $
KATL 140252Z 31008KT 10SM -RA FEW014 OVC110 17/14 A3008 RMK AO2 RAB21 SLP183 P0000 60002 T01670139 51006 $
KATL 140152Z 22005KT 10SM FEW024 BKN110 OVC140 17/14 A3007 RMK AO2 RAE48 SLP178 P0001 T01720139 $
KATL 140138Z 23006KT 10SM -RA SCT022 BKN090 OVC120 17/14 A3008 RMK AO2 PRESFR P0001 T01720139 $
KATL 140119Z 29011KT 10SM -RA FEW007 BKN022 OVC090 17/15 A3010 RMK AO2 P0001 T01720150 $
KATL 140113Z 30012KT 10SM -RA FEW007 SCT018 BKN080 OVC140 18/16 A3010 RMK AO2 P0001 T01780156 $
KATL 140103Z 30014G17KT 7SM -RA SCT006 BKN014 OVC080 18/16 A3011 RMK AO2 PRESRR P0001 T01780161 $
KATL 140052Z 30009KT 10SM -RA SCT005 BKN075 OVC100 18/16 A3008 RMK AO2 SLP183 P0001 T01780161 $
KATL 132352Z 23004KT 10SM -RA SCT007 BKN075 OVC100 18/17 A3006 RMK AO2 SLP175 P0001 60002 T01830167 10189 20172 53003 $
KATL 132252Z 28004KT 10SM -RA FEW008 SCT075 OVC110 18/16 A3006 RMK AO2 RAB2159 SLP173 P0000 T01830161 $
KATL 132152Z 30005KT 10SM FEW012 FEW018 OVC110 18/16 A3005 RMK AO2 SLP171 VIRGA NE DSNT SE-S T01830156 $
KATL 132104Z 22005KT 10SM SCT017 BKN100 OVC200 18/16 A3006 RMK AO2 T01830156 $
KATL 132052Z 23003KT 10SM FEW010 BKN018 OVC100 18/16 A3005 RMK AO2 SLP171 60001 T01830161 58003 $
KATL 131952Z 29007KT 10SM FEW007 OVC019 18/16 A3006 RMK AO2 SLP175 T01780161 $
KATL 131913Z 29004KT 7SM SCT006 BKN017 OVC034 18/16 A3006 RMK AO2 T01780156 $
KATL 131852Z 27005KT 8SM BKN007 OVC035 18/16 A3006 RMK AO2 RAE29 SLP174 P0001 T01780161 $
KATL 131752Z 30007KT 3SM -RA BR OVC005 17/16 A3006 RMK AO2 RAB35 SLP176 P0000 60011 T01720161 10183 20161 58009 $
KATL 131740Z 33006KT 2 1/2SM -RA BR BKN006 OVC012 17/16 A3006 RMK AO2 RAB35 P0000 T01720156 $
KATL 131732Z 31008KT 5SM BR BKN006 OVC016 17/16 A3007 RMK AO2 T01720156 $
KATL 131716Z 35007KT 8SM OVC004 18/16 A3007 RMK AO2 T01780161 $
KATL 131652Z 31007KT 5SM BR OVC006 18/16 A3007 RMK AO2 RAB30E52 SLP178 P0000 T01780161 $
KATL 131640Z 30004KT 3SM -RA BR OVC005 18/16 A3007 RMK AO2 RAB30 P0000 T01830161 $
KATL 131558Z 34003KT 10SM BKN006 OVC025 18/16 A3008 RMK AO2 T01780156 $
KATL 131552Z 34005KT 10SM SCT005 OVC027 18/16 A3008 RMK AO2 RAE34 SLP181 P0010 T01780156 $
KATL 131539Z 34003KT 7SM SCT005 BKN025 BKN250 17/15 A3008 RMK AO2 RAE34 P0010 T01720150 $
KATL 131520Z 27003KT 5SM -RA BR BKN005 BKN015 OVC027 17/15 A3009 RMK AO2 P0010 T01670150 $
KATL 131459Z 31003KT 2SM +RA BR BKN006 OVC013 17/14 A3009 RMK AO2 P0003 T01670144 $
KATL 131452Z 31004KT 3SM RA BR FEW006 OVC013 17/14 A3009 RMK AO2 RAB19 SLP184 P0001 60001 T01670144 51016 $
KATL 131437Z 34005KT 5SM -RA BR FEW005 OVC013 17/14 A3009 RMK AO2 RAB19 P0001 T01670144 $
KATL 131352Z 33008KT 10SM FEW008 BKN024 OVC060 17/14 A3008 RMK AO2 RAB17E47 SLP179 P0000 T01670144 $
KATL 131316Z 32007KT 10SM SCT016 OVC028 17/13 A3007 RMK AO2 T01720133 $
KATL 131252Z 31006KT 10SM SCT016 BKN030 OVC055 17/13 A3006 RMK AO2 SLP173 T01720128 $
KATL 131152Z 30004KT 10SM FEW035 SCT050 BKN070 BKN150 BKN200 17/14 A3004 RMK AO2 RAB19E30 SLP166 P0000 60002 70002 T01720139 10183 20172 51011 $
KATL 131052Z 30004KT 10SM FEW050 SCT070 SCT110 BKN150 18/14 A3003 RMK AO2 SLP163 T01780139 $
KATL 130952Z 00000KT 10SM FEW055 SCT080 BKN110 BKN160 18/14 A3002 RMK AO2 SLP158 T01780139 $
KATL 130852Z 22003KT 10SM FEW055 OVC080 18/14 A3001 RMK AO2 SLP154 60002 T01780139 56006 $
KATL 130752Z 00000KT 10SM BKN055 OVC070 18/13 A3001 RMK AO2 SLP155 BINOVC T01780133 $
KATL 130652Z 00000KT 10SM FEW030 BKN050 OVC080 18/12 A3002 RMK AO2 RAE49 SLP156 P0002 T01780122 $
KATL 130552Z 35003KT 10SM -RA FEW020 BKN055 OVC080 18/13 A3003 RMK AO2 RAE13B51 SLP160 P0000 60000 T01830133 10222 20183 58004 $
KATL 130452Z 31006KT 8SM -RA FEW022 BKN048 OVC060 18/13 A3004 RMK AO2 RAB40 SLP165 P0000 T01830133 402780172 $
KATL 130352Z 32006KT 10SM OVC048 19/12 A3004 RMK AO2 SLP166 BINOVC T01940122
KATL 130252Z 32007KT 10SM BKN050 OVC080 20/13 A3004 RMK AO2 SLP164 BINOVC T02000128 50001
KATL 130152Z 33007KT 10SM BKN045 BKN075 BKN200 21/13 A3004 RMK AO2 SLP167 T02060133
KATL 130052Z 32008KT 10SM BKN060 BKN085 BKN200 22/14 A3005 RMK AO2 SLP168 T02170139
KATL 122352Z COR 32007KT 10SM FEW060 BKN085 BKN200 22/14 A3004 RMK AO2 RAB03E16 SLP165 P0000 60000 T02220144 10267 20222 50003
KATL 122252Z 29007KT 10SM SCT048 BKN060 BKN085 BKN200 23/15 A3004 RMK AO2 SLP166 VIRGA SE-SW ACC NE DSNT S W-NW T02280150